createdAt,value
2023-05-25T00:04:33.729Z,2.10
2023-05-25T00:27:15.419Z,1.60
2023-05-25T00:29:16.775Z,2.25
2023-05-25T00:31:43.386Z,2.53
2023-05-25T00:44:41.836Z,2.20
2023-05-25T00:47:26.118Z,2.30
2023-05-25T00:49:52.804Z,2.30
2023-05-25T00:52:19.545Z,1.60
2023-05-25T00:54:48.101Z,2.30
2023-05-25T00:57:17.658Z,1.83
2023-05-25T01:00:25.240Z,1.70
2023-05-25T01:03:40.774Z,2.00
2023-05-25T01:10:06.144Z,2.13
2023-05-25T01:26:47.037Z,2.22
2023-05-25T01:29:46.575Z,3.15
2023-05-25T01:33:07.879Z,2.13
2023-05-25T01:39:15.611Z,2.55
2023-05-25T01:52:56.267Z,2.38
2023-05-25T01:55:36.297Z,1.90
2023-05-25T01:58:28.299Z,2.42
2023-05-25T02:05:29.425Z,2.10
2023-05-25T02:14:59.323Z,1.98
2023-05-25T02:17:53.281Z,2.53
2023-05-25T02:21:02.470Z,2.47
2023-05-25T02:23:39.259Z,1.98
2023-05-25T02:26:49.679Z,2.33
2023-05-25T02:29:54.879Z,2.22
2023-05-25T02:33:18.107Z,1.77
2023-05-25T02:49:59.958Z,2.38
2023-05-25T02:55:40.712Z,2.30
2023-05-25T02:59:03.985Z,2.42
2023-05-25T03:07:49.567Z,2.20
2023-05-25T03:14:15.358Z,2.17
2023-05-25T03:16:49.634Z,2.08
2023-05-25T03:22:43.989Z,1.83
2023-05-25T03:32:19.906Z,1.88
2023-05-25T03:34:46.612Z,2.85
2023-05-25T03:38:04.941Z,2.22
2023-05-25T03:40:42.372Z,1.90
2023-05-25T03:43:52.920Z,1.98
2023-05-25T03:46:45.877Z,2.17
2023-05-25T03:49:45.175Z,1.60
2023-05-25T03:52:31.861Z,1.88
2023-05-25T03:55:34.437Z,2.35
2023-05-25T03:59:32.746Z,1.98
2023-05-25T04:08:08.679Z,1.38
2023-05-25T04:10:38.238Z,2.03
2023-05-25T04:13:04.902Z,2.35
2023-05-25T04:15:31.762Z,2.72
2023-05-25T04:18:08.900Z,2.25
2023-05-25T04:20:36.000Z,2.83
2023-05-25T04:23:03.064Z,2.63
2023-05-25T04:25:29.970Z,1.92
2023-05-25T04:27:58.027Z,2.40
2023-05-25T04:30:43.395Z,2.05
2023-05-25T04:33:29.882Z,1.77
2023-05-25T04:36:02.262Z,2.47
2023-05-25T04:38:30.826Z,2.33
2023-05-25T04:41:02.210Z,1.60
2023-05-25T04:43:30.043Z,2.40
2023-05-25T04:45:59.755Z,1.80
2023-05-25T04:48:32.659Z,2.42
2023-05-25T04:51:03.054Z,2.03
2023-05-25T04:53:32.367Z,2.28
2023-05-25T04:55:59.076Z,2.22
2023-05-25T04:58:25.693Z,2.20
2023-05-25T05:00:52.960Z,3.22
2023-05-25T05:03:19.734Z,1.95
2023-05-25T05:05:46.939Z,2.42
2023-05-25T05:08:19.241Z,1.42
2023-05-25T05:10:46.042Z,1.67
2023-05-25T05:13:14.087Z,2.33
2023-05-25T05:15:41.088Z,2.45
2023-05-25T05:18:08.745Z,2.10
2023-05-25T05:20:37.455Z,1.77
2023-05-25T05:23:04.114Z,2.33
2023-05-25T05:25:30.841Z,2.40
2023-05-25T05:27:57.664Z,2.78
2023-05-25T05:30:28.711Z,1.63
2023-05-25T05:32:56.270Z,1.73
2023-05-25T05:35:27.096Z,2.05
2023-05-25T05:38:03.009Z,1.70
2023-05-25T05:40:29.689Z,2.00
2023-05-25T05:42:56.457Z,1.58
2023-05-25T05:45:23.258Z,1.70
2023-05-25T05:47:50.126Z,1.65
2023-05-25T05:50:17.364Z,1.50
2023-05-25T05:52:44.219Z,2.17
2023-05-25T05:55:11.191Z,1.67
2023-05-25T05:57:40.085Z,1.95
2023-05-25T06:00:07.460Z,2.65
2023-05-25T06:02:42.233Z,2.13
2023-05-25T06:05:14.434Z,2.08
2023-05-25T06:07:42.755Z,2.25
2023-05-25T06:10:09.799Z,2.00
2023-05-25T06:12:36.659Z,1.80
2023-05-25T06:15:03.709Z,1.58
2023-05-25T06:17:30.539Z,1.90
2023-05-25T06:19:57.277Z,2.08
2023-05-25T06:22:27.856Z,2.10
2023-05-25T06:24:56.143Z,1.88
2023-05-25T06:27:23.565Z,2.03
2023-05-25T06:29:50.387Z,1.88
2023-05-25T06:32:17.225Z,2.13
2023-05-25T06:34:43.941Z,1.65
2023-05-25T06:37:10.915Z,1.67
2023-05-25T06:39:38.930Z,1.80
2023-05-25T06:42:06.021Z,2.33
2023-05-25T06:44:36.837Z,2.13
2023-05-25T06:47:08.260Z,1.90
2023-05-25T06:49:34.945Z,1.77
2023-05-25T06:52:01.771Z,1.70
2023-05-25T06:54:28.380Z,2.20
2023-05-25T06:56:55.048Z,1.30
2023-05-25T06:59:21.615Z,1.88
2023-05-25T07:01:48.909Z,2.08
2023-05-25T07:04:18.133Z,2.20
2023-05-25T07:06:44.737Z,1.80
2023-05-25T07:09:12.814Z,1.77
2023-05-25T07:11:39.387Z,1.80
2023-05-25T07:14:06.119Z,2.22
2023-05-25T07:16:33.197Z,2.13
2023-05-25T07:19:00.572Z,1.98
2023-05-25T07:21:27.789Z,2.75
2023-05-25T07:23:54.375Z,1.73
2023-05-25T07:26:23.036Z,2.00
2023-05-25T07:28:49.639Z,1.60
2023-05-25T07:31:16.531Z,2.25
2023-05-25T07:33:43.710Z,1.50
2023-05-25T07:36:10.588Z,2.00
2023-05-25T07:38:37.282Z,1.92
2023-05-25T07:41:06.433Z,1.60
2023-05-25T07:43:33.184Z,2.10
2023-05-25T07:46:01.914Z,2.35
2023-05-25T07:48:28.484Z,2.28
2023-05-25T07:50:55.182Z,2.28
2023-05-25T07:53:21.866Z,2.28
2023-05-25T07:55:48.718Z,1.83
2023-05-25T07:58:15.643Z,2.00
2023-05-25T08:00:43.761Z,1.45
2023-05-25T08:03:11.114Z,1.98
2023-05-25T08:05:37.939Z,1.70
2023-05-25T08:08:04.610Z,1.73
2023-05-25T08:10:34.642Z,1.90
2023-05-25T08:13:01.317Z,1.80
2023-05-25T08:15:27.966Z,1.92
2023-05-25T08:17:56.587Z,1.63
2023-05-25T08:20:24.931Z,2.03
2023-05-25T08:22:53.537Z,1.80
2023-05-25T08:25:20.796Z,2.10
2023-05-25T08:27:47.676Z,2.30
2023-05-25T08:30:14.414Z,1.83
2023-05-25T08:32:41.122Z,1.88
2023-05-25T08:35:08.187Z,1.63
2023-05-25T08:37:35.599Z,1.63
2023-05-25T08:40:02.717Z,2.15
2023-05-25T08:42:29.971Z,1.80
2023-05-25T08:44:56.937Z,1.60
2023-05-25T08:47:24.027Z,2.03
2023-05-25T08:49:52.808Z,1.95
2023-05-25T08:52:23.507Z,1.80
2023-05-25T08:54:53.993Z,1.95
2023-05-25T08:57:29.269Z,2.28
2023-05-25T09:00:12.183Z,1.92
2023-05-25T09:02:58.124Z,2.28
2023-05-25T09:05:25.475Z,1.73
2023-05-25T09:07:54.760Z,1.80
2023-05-25T09:10:23.830Z,1.83
2023-05-25T09:12:52.075Z,2.00
2023-05-25T09:15:19.071Z,2.00
2023-05-25T09:17:45.762Z,1.92
2023-05-25T09:20:15.780Z,1.60
2023-05-25T09:22:43.981Z,1.40
2023-05-25T09:25:11.843Z,1.98
2023-05-25T09:27:38.852Z,2.08
2023-05-25T09:30:06.637Z,1.92
2023-05-25T09:32:33.621Z,2.17
2023-05-25T09:35:11.186Z,1.48
2023-05-25T09:37:37.951Z,1.45
2023-05-25T09:40:06.387Z,2.20
2023-05-25T09:42:37.074Z,2.10
2023-05-25T09:45:04.951Z,2.22
2023-05-25T09:47:31.800Z,1.88
2023-05-25T09:49:59.212Z,2.05
2023-05-25T09:52:26.087Z,1.63
2023-05-25T09:54:52.679Z,2.00
2023-05-25T09:57:20.452Z,2.22
2023-05-25T09:59:47.324Z,2.22
2023-05-25T10:02:15.474Z,1.67
2023-05-25T10:04:42.220Z,2.13
2023-05-25T10:07:09.477Z,2.20
2023-05-25T10:09:41.733Z,1.95
2023-05-25T10:12:09.210Z,1.80
2023-05-25T10:14:40.569Z,1.85
2023-05-25T10:17:10.226Z,1.70
2023-05-25T10:19:54.970Z,1.90
2023-05-25T10:22:51.211Z,2.15
2023-05-25T10:25:48.692Z,2.75
2023-05-25T10:28:39.456Z,1.70
2023-05-25T10:31:07.177Z,1.55
2023-05-25T10:33:34.378Z,2.40
2023-05-25T10:36:10.619Z,1.58
2023-05-25T10:38:40.056Z,2.10
2023-05-25T10:41:09.546Z,1.88
2023-05-25T10:43:36.625Z,1.83
2023-05-25T10:46:04.274Z,2.20
2023-05-25T10:48:48.484Z,2.08
2023-05-25T10:51:15.297Z,1.73
2023-05-25T10:53:46.252Z,2.10
2023-05-25T10:56:14.316Z,1.75
2023-05-25T10:58:44.022Z,1.85
2023-05-25T11:01:13.261Z,2.35
2023-05-25T11:03:53.684Z,2.28
2023-05-25T11:06:22.216Z,2.10
2023-05-25T11:08:56.480Z,2.22
2023-05-25T11:11:43.015Z,2.38
2023-05-25T11:14:23.732Z,2.10
2023-05-25T11:17:10.314Z,1.88
2023-05-25T11:19:52.165Z,2.20
2023-05-25T11:22:23.269Z,2.40
2023-05-25T11:24:53.846Z,1.73
2023-05-25T11:27:45.660Z,2.30
2023-05-25T11:30:13.365Z,2.17
2023-05-25T11:32:49.038Z,1.92
2023-05-25T11:35:16.031Z,1.67
2023-05-25T11:37:50.750Z,1.40
2023-05-25T11:40:17.415Z,1.70
2023-05-25T11:42:48.288Z,1.58
2023-05-25T11:45:15.010Z,1.88
2023-05-25T11:47:41.778Z,2.47
2023-05-25T11:50:17.226Z,1.67
2023-05-25T11:52:43.958Z,2.25
2023-05-25T11:55:13.297Z,2.42
2023-05-25T11:57:40.628Z,2.33
2023-05-25T12:00:11.275Z,2.42
2023-05-25T12:02:41.981Z,1.58
2023-05-25T12:05:11.014Z,1.70
2023-05-25T12:07:44.610Z,2.00
2023-05-25T12:10:13.407Z,1.63
2023-05-25T12:12:50.894Z,1.77
2023-05-25T12:15:25.690Z,1.63
2023-05-25T12:17:54.291Z,2.22
2023-05-25T12:20:21.812Z,1.73
2023-05-25T12:22:48.995Z,2.13
2023-05-25T12:25:19.971Z,1.60
2023-05-25T12:27:46.621Z,2.00
2023-05-25T12:30:13.454Z,1.48
2023-05-25T12:33:02.897Z,1.90
2023-05-25T12:35:43.898Z,1.80
2023-05-25T12:38:12.033Z,2.05
2023-05-25T12:40:38.699Z,1.90
2023-05-25T12:43:05.556Z,1.65
2023-05-25T12:45:32.273Z,1.60
2023-05-25T12:48:00.118Z,1.67
2023-05-25T12:50:29.410Z,1.77
2023-05-25T12:53:02.387Z,1.90
2023-05-25T12:55:34.341Z,2.13
2023-05-25T12:58:03.022Z,1.88
2023-05-25T13:00:37.624Z,1.60
2023-05-25T13:03:07.562Z,1.08
2023-05-25T13:05:36.637Z,1.27
2023-05-25T13:08:05.336Z,1.80
2023-05-25T13:10:33.221Z,1.95
2023-05-25T13:13:00.825Z,1.83
2023-05-25T13:15:28.098Z,1.65
2023-05-25T13:17:56.409Z,1.90
2023-05-25T13:20:25.406Z,2.20
2023-05-25T13:22:53.806Z,2.55
2023-05-25T13:25:22.327Z,2.10
2023-05-25T13:27:52.893Z,1.77
2023-05-25T13:30:22.827Z,2.15
2023-05-25T13:32:51.701Z,2.03
2023-05-25T13:35:23.962Z,1.80
2023-05-25T13:37:51.285Z,2.20
2023-05-25T13:40:18.412Z,1.98
2023-05-25T13:42:45.150Z,2.08
2023-05-25T13:45:11.837Z,2.45
2023-05-25T13:47:38.828Z,1.80
2023-05-25T13:50:06.214Z,1.95
2023-05-25T13:52:33.176Z,2.20
2023-05-25T13:54:59.770Z,2.00
2023-05-25T13:57:26.417Z,2.08
2023-05-25T13:59:53.037Z,2.08
2023-05-25T14:02:19.819Z,1.98
2023-05-25T14:04:46.503Z,2.33
2023-05-25T14:07:13.187Z,2.05
2023-05-25T14:09:39.894Z,1.88
2023-05-25T14:12:06.895Z,1.92
2023-05-25T14:14:33.754Z,2.10
2023-05-25T14:17:01.496Z,2.30
2023-05-25T14:19:28.456Z,2.10
2023-05-25T14:24:24.854Z,2.35
2023-05-25T14:26:51.583Z,2.47
2023-05-25T14:29:18.325Z,2.00
2023-05-25T14:31:45.094Z,2.20
2023-05-25T14:34:11.691Z,2.53
2023-05-25T14:36:38.238Z,1.83
2023-05-25T14:39:04.762Z,2.10
2023-05-25T14:41:31.362Z,2.28
2023-05-25T14:43:57.948Z,2.72
2023-05-25T14:46:24.618Z,2.30
2023-05-25T14:48:51.183Z,2.85
2023-05-25T14:51:17.853Z,3.15
2023-05-25T14:53:45.057Z,3.53
2023-05-25T14:56:11.624Z,2.50
2023-05-25T14:58:38.227Z,2.10
2023-05-25T15:01:04.993Z,2.75
2023-05-25T15:03:32.527Z,2.38
2023-05-25T15:05:59.192Z,2.15
2023-05-25T15:08:26.010Z,2.97
2023-05-25T15:10:52.748Z,2.47
2023-05-25T15:13:22.403Z,3.30
2023-05-25T15:15:52.002Z,3.30
2023-05-25T15:18:18.850Z,2.58
2023-05-25T15:20:45.592Z,2.83
2023-05-25T15:23:12.224Z,2.50
2023-05-25T15:25:38.965Z,2.60
2023-05-25T15:28:05.769Z,2.70
2023-05-25T15:30:34.141Z,2.55
2023-05-25T15:33:01.770Z,2.55
2023-05-25T15:35:32.136Z,2.45
2023-05-25T15:37:59.718Z,3.05
2023-05-25T15:40:26.838Z,2.50
2023-05-25T15:42:53.709Z,2.75
2023-05-25T15:45:20.516Z,3.00
2023-05-25T15:47:47.272Z,2.30
2023-05-25T15:50:13.988Z,3.08
2023-05-25T15:52:41.527Z,3.20
2023-05-25T15:55:08.853Z,2.63
2023-05-25T15:57:35.482Z,2.97
2023-05-25T16:00:02.398Z,2.80
2023-05-25T16:02:32.536Z,3.80
2023-05-25T16:04:59.270Z,2.88
2023-05-25T16:07:25.868Z,3.10
2023-05-25T16:09:52.545Z,3.17
2023-05-25T16:12:19.356Z,2.80
2023-05-25T16:14:46.078Z,3.05
2023-05-25T16:17:12.905Z,2.85
2023-05-25T16:19:39.560Z,3.53
2023-05-25T16:22:06.148Z,2.92
2023-05-25T16:24:32.707Z,3.15
2023-05-25T16:26:59.367Z,3.40
2023-05-25T16:29:26.275Z,3.15
2023-05-25T16:31:54.865Z,3.20
2023-05-25T16:34:22.097Z,3.17
2023-05-25T16:36:48.906Z,3.08
2023-05-25T16:39:15.592Z,3.00
2023-05-25T16:41:42.415Z,3.95
2023-05-25T16:44:11.440Z,3.28
2023-05-25T16:46:38.609Z,3.80
2023-05-25T16:49:05.861Z,3.70
2023-05-25T16:51:32.536Z,4.07
2023-05-25T16:53:59.184Z,3.53
2023-05-25T16:56:26.358Z,4.05
2023-05-25T16:58:53.095Z,3.25
2023-05-25T17:01:19.802Z,3.53
2023-05-25T17:03:46.692Z,3.72
2023-05-25T17:06:13.749Z,3.22
2023-05-25T17:08:40.376Z,3.53
2023-05-25T17:11:06.939Z,2.95
2023-05-25T17:13:33.883Z,3.40
2023-05-25T17:16:00.588Z,3.92
2023-05-25T17:18:27.181Z,3.10
2023-05-25T17:20:54.018Z,3.38
2023-05-25T17:23:21.959Z,3.28
2023-05-25T17:25:48.792Z,3.10
2023-05-25T17:28:15.352Z,4.00
2023-05-25T17:30:41.924Z,3.50
2023-05-25T17:33:08.599Z,3.25
2023-05-25T17:35:35.483Z,3.80
2023-05-25T17:38:02.091Z,3.40
2023-05-25T17:40:28.718Z,3.53
2023-05-25T17:42:55.309Z,2.83
2023-05-25T17:45:21.969Z,3.05
2023-05-25T17:47:48.655Z,3.55
2023-05-25T17:50:15.385Z,2.90
2023-05-25T17:52:42.543Z,3.00
2023-05-25T17:55:09.452Z,3.10
2023-05-25T17:57:36.366Z,3.50
2023-05-25T18:00:12.586Z,3.10
2023-05-25T18:03:23.798Z,3.83
2023-05-25T18:05:53.956Z,3.58
2023-05-25T18:08:53.051Z,3.72
2023-05-25T18:11:45.238Z,2.95
2023-05-25T18:14:24.665Z,3.03
2023-05-25T18:17:04.187Z,3.08
2023-05-25T18:19:59.170Z,3.45
2023-05-25T18:23:02.588Z,3.00
2023-05-25T18:25:42.754Z,2.63
2023-05-25T18:28:19.548Z,2.97
2023-05-25T18:30:55.430Z,2.83
2023-05-25T18:36:18.979Z,2.33
2023-05-25T18:38:59.471Z,2.75
2023-05-25T18:41:50.000Z,2.80
2023-05-25T18:44:54.484Z,3.15
2023-05-25T18:47:38.708Z,3.22
2023-05-25T18:50:57.031Z,3.50
2023-05-25T18:53:28.233Z,3.65
2023-05-25T18:56:15.574Z,3.20
2023-05-25T18:58:44.864Z,3.42
2023-05-25T19:01:39.544Z,3.42
2023-05-25T19:04:21.048Z,2.40
2023-05-25T19:07:01.603Z,3.30
2023-05-25T19:12:38.590Z,2.70
2023-05-25T19:22:54.527Z,2.60
2023-05-25T19:25:47.936Z,2.95
2023-05-25T19:28:48.500Z,2.60
2023-05-25T19:32:05.107Z,2.40
2023-05-25T19:35:47.787Z,2.28
2023-05-25T19:39:05.229Z,2.50
2023-05-25T19:41:58.003Z,3.00
2023-05-25T19:44:43.325Z,2.63
2023-05-25T19:47:21.657Z,2.80
2023-05-25T19:49:54.024Z,3.17
2023-05-25T19:52:38.352Z,3.17
2023-05-25T19:55:18.218Z,2.65
2023-05-25T20:01:28.656Z,2.45
2023-05-25T20:04:54.974Z,3.00
2023-05-25T20:08:04.548Z,3.05
2023-05-25T20:11:04.117Z,3.35
2023-05-25T20:14:02.294Z,2.88
2023-05-25T20:17:05.397Z,3.42
2023-05-25T20:20:44.601Z,3.42
2023-05-25T20:26:36.106Z,3.10
2023-05-25T20:32:53.958Z,4.18
2023-05-25T20:35:27.116Z,3.00
2023-05-25T20:38:34.097Z,3.22
2023-05-25T20:41:27.032Z,3.65
2023-05-25T20:44:43.936Z,2.95
2023-05-25T20:55:11.620Z,3.05
2023-05-25T20:58:09.447Z,3.40
2023-05-25T21:03:52.946Z,4.03
2023-05-25T21:06:58.180Z,3.03
2023-05-25T21:09:34.407Z,2.95
2023-05-25T21:12:17.105Z,3.13
2023-05-25T21:14:54.176Z,3.53
2023-05-25T21:17:40.993Z,3.47
2023-05-25T21:20:44.040Z,3.22
2023-05-25T21:24:27.244Z,3.05
2023-05-25T21:33:43.365Z,3.20
2023-05-25T21:36:25.492Z,3.17
2023-05-25T21:42:56.427Z,3.20
2023-05-25T21:49:28.541Z,4.20
2023-05-25T21:52:24.858Z,3.85
2023-05-25T21:55:12.984Z,3.90
2023-05-25T21:58:21.497Z,3.88
2023-05-25T22:00:59.344Z,3.42
2023-05-25T22:03:31.145Z,3.95
2023-05-25T22:13:28.756Z,5.15
2023-05-25T22:22:07.793Z,4.00
2023-05-25T22:23:18.698Z,4.45
2023-05-25T22:33:06.463Z,4.18
2023-05-25T22:36:13.282Z,3.72
2023-05-25T22:42:50.101Z,4.03
2023-05-25T22:46:19.561Z,4.43
2023-05-25T22:49:44.026Z,4.38
2023-05-25T22:56:36.550Z,4.22
2023-05-25T23:04:49.062Z,4.68
2023-05-25T23:10:23.575Z,4.65
2023-05-25T23:21:00.984Z,3.83
2023-05-25T23:24:11.846Z,4.57
2023-05-25T23:31:16.998Z,4.07
2023-05-25T23:44:45.168Z,4.10
